Time;durP1;ratioP1;P1;durP2;ratioP2;P2;SDS_P1;SDS_P2;PMS_P1;PMS_P2;Temp;Humidity;BMP_temperature;BMP_pressure;BME280_temperature;BME280_humidity;BME280_pressure;Samples;Min_cycle;Max_cycle;Signal;HPM_P1;HPM_P2
2021/09/08 00:01:45;;;;;;;13.40;12.00;;;13.50;99.90;;;13.60;60.48;94478.16;5031229;28;20203;-73
2021/09/08 00:04:13;;;;;;;12.70;11.37;;;12.60;99.90;;;13.59;60.86;94482.69;4999024;28;20202;-73
2021/09/08 00:06:43;;;;;;;13.50;12.20;;;12.30;99.90;;;13.58;60.52;94482.94;5013505;28;20874;-73
2021/09/08 00:09:12;;;;;;;14.00;12.60;;;;;;;13.54;61.00;94477.38;5029434;28;20211;-73
2021/09/08 00:11:40;;;;;;;13.30;11.90;;;12.90;99.90;;;13.60;60.77;94473.63;5033084;28;20753;-73
2021/09/08 00:14:06;;;;;;;13.43;12.03;;;13.40;99.90;;;13.57;60.81;94468.03;4999702;28;20630;-73
2021/09/08 00:16:34;;;;;;;15.40;11.97;;;13.60;99.90;;;13.60;60.80;94464.81;5021393;28;20214;-73
2021/09/08 00:19:02;;;;;;;15.60;12.83;;;12.60;99.90;;;13.55;61.23;94454.19;5002343;28;20223;-74
2021/09/08 00:21:28;;;;;;;14.70;13.17;;;13.00;99.90;;;13.48;61.43;94453.66;5017878;28;20276;-73
2021/09/08 00:23:56;;;;;;;15.77;12.93;;;12.80;99.90;;;13.44;61.49;94449.94;5015025;28;20646;-73
2021/09/08 00:26:24;;;;;;;14.60;13.10;;;;;;;13.39;61.38;94448.09;5007954;28;20232;-73
2021/09/08 00:28:52;;;;;;;14.07;12.57;;;11.80;99.90;;;13.33;61.50;94441.16;5032620;28;20628;-73
2021/09/08 00:31:20;;;;;;;14.17;12.77;;;;;;;13.36;61.57;94449.41;4990329;28;20199;-73
2021/09/08 00:33:46;;;;;;;15.33;12.93;;;12.40;99.90;;;13.27;61.59;94444.91;5033488;28;20781;-74
2021/09/08 00:36:12;;;;;;;13.33;12.03;;;12.50;99.90;;;13.29;61.96;94443.59;5014471;28;20225;-73
2021/09/08 00:38:40;;;;;;;12.53;11.30;;;12.00;99.90;;;13.30;61.81;94447.81;5031997;28;20513;-73
2021/09/08 00:41:09;;;;;;;13.10;11.20;;;;;;;13.31;61.81;94440.66;5012398;28;20219;-73
2021/09/08 00:43:37;;;;;;;12.73;11.23;;;11.80;99.90;;;13.30;62.01;94439.84;5025975;28;20252;-73
2021/09/08 00:46:06;;;;;;;12.57;11.30;;;12.40;99.90;;;13.29;62.03;94437.47;4996246;28;20296;-73
2021/09/08 00:48:34;;;;;;;12.70;11.40;;;12.00;99.90;;;13.23;62.38;94430.53;5023610;28;20213;-73
2021/09/08 00:51:00;;;;;;;13.50;11.70;;;12.20;99.90;;;13.17;61.83;94434.25;5017869;28;20188;-73
2021/09/08 00:53:28;;;;;;;13.77;12.37;;;12.20;99.90;;;13.17;62.63;94431.59;5025805;28;20189;-73
2021/09/08 00:55:59;;;;;;;14.40;12.73;;;12.40;99.90;;;13.14;62.70;94438.25;5013362;28;20273;-73
2021/09/08 00:58:25;;;;;;;14.10;12.23;;;12.30;99.90;;;13.16;62.62;94430.78;5004895;28;20186;-73
2021/09/08 01:00:53;;;;;;;14.27;12.77;;;12.30;99.90;;;13.18;62.90;94442.00;5001298;28;20580;-73
2021/09/08 01:03:19;;;;;;;13.10;11.80;;;11.90;99.90;;;13.18;62.75;94427.88;5040361;28;20288;-73
2021/09/08 01:05:46;;;;;;;13.60;12.20;;;12.40;99.90;;;13.19;62.87;94435.63;5036257;28;20275;-75
2021/09/08 01:08:15;;;;;;;13.57;12.23;;;12.00;99.90;;;13.18;62.71;94447.31;5028186;28;20184;-75
2021/09/08 01:10:44;;;;;;;13.50;12.10;;;12.20;99.90;;;13.16;62.84;94441.44;5025308;28;20201;-75
2021/09/08 01:13:10;;;;;;;13.90;12.50;;;12.20;99.90;;;13.11;63.16;94436.13;5021927;28;20250;-75
2021/09/08 01:15:36;;;;;;;15.90;13.50;;;11.80;99.90;;;13.05;62.70;94439.03;5013295;28;20585;-75
2021/09/08 01:18:02;;;;;;;16.17;13.77;;;12.20;99.90;;;13.09;63.08;94435.63;5012670;28;20210;-74
2021/09/08 01:20:28;;;;;;;15.20;13.53;;;12.60;99.90;;;13.04;63.24;94430.25;5012930;28;20217;-74
2021/09/08 01:22:54;;;;;;;16.20;14.60;;;12.10;99.90;;;13.08;63.43;94441.16;5025526;28;20196;-75
2021/09/08 01:25:27;;;;;;;16.20;14.50;;;11.50;99.90;;;13.15;63.59;94441.72;5017589;28;20236;-74
2021/09/08 01:27:57;;;;;;;15.17;13.57;;;11.80;99.90;;;13.12;63.93;94435.06;5012507;28;20197;-72
2021/09/08 01:30:27;;;;;;;14.50;13.00;;;12.90;99.90;;;13.11;63.84;94430.81;5006019;28;20200;-72
2021/09/08 01:32:56;;;;;;;13.60;12.20;;;11.70;99.90;;;13.05;63.53;94429.19;5033127;28;20195;-72
2021/09/08 01:35:22;;;;;;;14.07;11.73;;;11.70;99.90;;;13.05;63.55;94429.19;5011943;28;20204;-73
2021/09/08 01:37:53;;;;;;;12.43;11.23;;;12.00;99.90;;;13.01;63.50;94430.78;5018016;28;20343;-73
2021/09/08 01:40:21;;;;;;;13.20;11.70;;;12.00;99.90;;;13.03;63.51;94431.31;5006793;28;20307;-72
2021/09/08 01:42:47;;;;;;;12.83;11.33;;;12.00;99.90;;;12.92;63.62;94429.72;5003139;28;20208;-73
2021/09/08 01:45:15;;;;;;;13.33;11.93;;;11.80;99.90;;;12.92;63.58;94435.03;5010761;28;20283;-74
2021/09/08 01:47:42;;;;;;;14.03;12.50;;;11.90;99.90;;;12.90;64.29;94436.34;5008347;28;20196;-74
2021/09/08 01:50:09;;;;;;;13.17;11.87;;;12.10;99.90;;;12.87;64.29;94432.38;5021992;28;20222;-73
2021/09/08 01:52:38;;;;;;;13.00;11.70;;;11.90;99.90;;;12.86;64.00;94431.56;5027230;28;20208;-73
2021/09/08 01:55:09;;;;;;;13.50;12.20;;;11.70;99.90;;;12.90;64.05;94437.16;5010434;28;20224;-73
2021/09/08 01:57:38;;;;;;;15.37;11.97;;;12.10;99.90;;;12.90;64.25;94425.72;4996297;28;20294;-73
2021/09/08 02:00:07;;;;;;;14.73;13.13;;;12.40;99.90;;;12.88;64.59;94428.66;5009954;28;20223;-71
2021/09/08 02:02:36;;;;;;;16.93;12.10;;;11.50;99.90;;;12.90;64.45;94429.16;5009227;28;20679;-73
2021/09/08 02:05:08;;;;;;;14.77;13.27;;;11.90;99.90;;;12.79;64.45;94430.25;5028547;28;20235;-73
2021/09/08 02:07:33;;;;;;;16.17;14.27;;;11.80;99.90;;;12.81;64.71;94425.44;4996119;28;20294;-73
2021/09/08 02:10:02;;;;;;;17.37;12.77;;;11.80;99.90;;;12.76;64.78;94422.78;5007225;28;20303;-73
2021/09/08 02:12:28;;;;;;;14.20;12.70;;;;;;;12.75;64.98;94423.84;5010522;28;20192;-72
2021/09/08 02:14:54;;;;;;;15.83;13.70;;;11.60;99.90;;;12.69;64.56;94417.72;5011395;28;20192;-73
2021/09/08 02:17:20;;;;;;;15.57;13.67;;;;;;;12.71;64.58;94422.78;5011621;28;21001;-72
2021/09/08 02:19:46;;;;;;;17.20;14.30;;;;;;;12.84;65.02;94444.34;5016075;28;20218;-72
2021/09/08 02:22:14;;;;;;;16.63;13.20;;;11.60;99.90;;;12.89;65.39;94413.50;5044186;28;20206;-72
2021/09/08 02:24:42;;;;;;;18.33;13.67;;;11.70;99.90;;;12.86;64.96;94412.94;5024339;28;20222;-72
2021/09/08 02:27:10;;;;;;;14.30;12.90;;;12.00;99.90;;;12.73;65.01;94421.44;5029874;28;20515;-72
2021/09/08 02:29:41;;;;;;;14.20;12.00;;;11.70;99.90;;;12.69;65.25;94424.91;4992955;28;20191;-73
2021/09/08 02:32:07;;;;;;;14.13;12.73;;;11.90;99.90;;;12.67;65.77;94413.72;5008773;28;20201;-72
2021/09/08 02:34:33;;;;;;;14.57;13.07;;;11.90;99.90;;;12.59;65.03;94415.03;5032547;28;20193;-73
2021/09/08 02:36:59;;;;;;;14.83;13.23;;;11.50;99.90;;;12.59;65.51;94420.34;5043662;28;20256;-73
2021/09/08 02:39:27;;;;;;;14.93;13.43;;;11.60;99.90;;;12.50;65.61;94411.31;5018799;28;20220;-72
2021/09/08 02:41:53;;;;;;;17.30;14.17;;;11.40;99.90;;;12.52;65.79;94411.88;5008302;28;20218;-73
2021/09/08 02:44:19;;;;;;;14.93;13.33;;;11.70;99.90;;;12.49;65.39;94415.03;5001781;28;20515;-72
2021/09/08 02:46:45;;;;;;;15.20;13.70;;;11.70;99.90;;;12.44;65.86;94406.25;4995472;28;20205;-72
2021/09/08 02:49:14;;;;;;;15.40;13.03;;;11.80;99.90;;;12.41;65.86;94417.41;5010774;28;20200;-72
2021/09/08 02:51:45;;;;;;;15.43;13.83;;;11.20;99.90;;;12.38;65.54;94416.09;5025444;28;20205;-72
2021/09/08 02:54:11;;;;;;;19.40;14.90;;;11.30;99.90;;;12.43;66.13;94404.63;5026415;28;20567;-73
2021/09/08 02:56:37;;;;;;;15.37;13.77;;;11.40;99.90;;;12.45;66.03;94408.66;5010182;28;20199;-73
2021/09/08 02:59:03;;;;;;;13.90;12.13;;;11.40;99.90;;;12.43;65.92;94400.13;4997312;28;20196;-73
2021/09/08 03:01:31;;;;;;;16.90;11.60;;;11.40;99.90;;;12.40;65.94;94402.50;5006032;28;20196;-73
2021/09/08 03:03:57;;;;;;;14.80;11.93;;;11.10;99.90;;;12.45;66.01;94395.38;5025681;28;20203;-72
2021/09/08 03:06:27;;;;;;;13.17;11.87;;;11.20;99.90;;;12.48;66.54;94402.81;5038918;28;20188;-73
2021/09/08 03:08:57;;;;;;;14.97;13.47;;;11.20;99.90;;;12.37;66.32;94397.72;5046785;28;20196;-73
2021/09/08 03:11:24;;;;;;;17.57;14.83;;;11.20;99.90;;;12.36;66.36;94399.59;5008778;28;20652;-73
2021/09/08 03:13:49;;;;;;;18.33;14.43;;;11.40;99.90;;;12.33;66.08;94398.25;5035138;28;20289;-73
2021/09/08 03:16:16;;;;;;;17.97;15.50;;;11.30;99.90;;;12.21;66.46;94392.38;4996720;28;20345;-73
2021/09/08 03:18:43;;;;;;;21.57;15.80;;;11.20;99.90;;;12.25;66.36;94393.47;5012257;28;20192;-72
2021/09/08 03:21:08;;;;;;;18.07;15.07;;;11.50;99.90;;;12.20;66.72;94385.47;5028317;28;20718;-73
2021/09/08 03:23:34;;;;;;;19.87;16.10;;;11.10;99.90;;;12.14;66.66;94391.03;5006329;28;20212;-73
2021/09/08 03:26:01;;;;;;;16.43;14.73;;;11.30;99.90;;;12.19;66.58;94391.84;5032116;28;20271;-73
2021/09/08 03:28:26;;;;;;;16.63;14.83;;;11.10;99.90;;;12.18;66.86;94382.28;5046543;28;20186;-74
2021/09/08 03:30:55;;;;;;;14.33;12.90;;;11.20;99.90;;;12.21;66.50;94394.25;5031497;28;20222;-72
2021/09/08 03:33:21;;;;;;;16.47;14.30;;;11.10;99.90;;;12.20;67.06;94380.16;5024555;28;20200;-73
2021/09/08 03:35:47;;;;;;;14.47;12.93;;;10.80;99.90;;;12.14;66.84;94383.88;5028748;28;20249;-73
2021/09/08 03:38:16;;;;;;;14.17;12.67;;;10.90;99.90;;;12.10;67.29;94390.75;5010144;28;20198;-74
2021/09/08 03:40:42;;;;;;;13.93;12.53;;;11.10;99.90;;;12.08;66.81;94390.22;5046555;28;20635;-72
2021/09/08 03:43:07;;;;;;;14.23;12.23;;;11.20;99.90;;;12.05;66.90;94385.44;5026283;28;20231;-73
2021/09/08 03:45:34;;;;;;;14.13;12.73;;;;;;;12.02;67.07;94388.59;5011591;28;20281;-74
2021/09/08 03:48:03;;;;;;;14.43;12.60;;;11.20;99.90;;;12.00;67.28;94381.94;5014146;28;20197;-73
2021/09/08 03:50:31;;;;;;;18.10;13.80;;;10.80;99.90;;;11.95;67.09;94373.97;5009338;28;20192;-73
2021/09/08 03:52:57;;;;;;;17.63;13.73;;;;;;;11.89;67.07;94383.78;5011417;28;20185;-73
2021/09/08 03:55:23;;;;;;;15.00;13.30;;;;;;;11.87;66.99;94383.25;5028589;28;20205;-73
2021/09/08 03:57:52;;;;;;;16.63;14.90;;;10.90;99.90;;;11.87;67.40;94382.44;5026735;28;20258;-73
2021/09/08 04:00:17;;;;;;;18.37;14.53;;;11.10;99.90;;;11.86;67.26;94378.19;5025114;28;20762;-74
2021/09/08 04:02:45;;;;;;;15.57;13.87;;;11.00;99.90;;;11.91;67.68;94388.84;4995099;28;20189;-73
2021/09/08 04:05:13;;;;;;;13.87;12.43;;;11.10;99.90;;;11.98;67.72;94382.22;5047975;28;20668;-72
2021/09/08 04:07:39;;;;;;;13.70;12.40;;;10.90;99.90;;;11.91;67.38;94378.22;5018660;28;20194;-72
2021/09/08 04:10:09;;;;;;;15.53;13.83;;;10.80;99.90;;;11.88;67.83;94381.38;5033524;28;20212;-72
2021/09/08 04:12:35;;;;;;;15.67;14.17;;;10.40;99.90;;;11.91;68.06;94391.50;5014008;28;20713;-73
2021/09/08 04:15:00;;;;;;;16.20;14.60;;;10.70;99.90;;;11.95;67.74;94388.06;5011971;28;20196;-73
2021/09/08 04:17:26;;;;;;;18.00;15.43;;;11.00;99.90;;;11.91;67.85;94381.66;5016056;28;20199;-73
2021/09/08 04:19:54;;;;;;;15.53;13.90;;;11.00;99.90;;;11.92;67.78;94382.47;4993612;28;20220;-73
2021/09/08 04:22:20;;;;;;;14.80;13.40;;;;;;;11.91;67.83;94388.84;5042436;28;20251;-73
2021/09/08 04:24:46;;;;;;;14.37;12.77;;;11.00;99.90;;;11.94;68.01;94375.03;5026879;28;20223;-72
2021/09/08 04:27:12;;;;;;;17.03;12.93;;;10.80;99.90;;;11.98;68.32;94376.91;5030330;28;20216;-73
2021/09/08 04:29:38;;;;;;;12.77;11.47;;;9.60;99.90;;;11.99;68.24;94377.69;5023292;28;20215;-73
2021/09/08 04:32:07;;;;;;;14.73;13.10;;;11.00;99.90;;;11.94;67.91;94378.50;4998830;28;20531;-73
2021/09/08 04:34:33;;;;;;;16.57;13.83;;;11.20;99.90;;;11.94;68.39;94383.00;5013785;28;20261;-72
2021/09/08 04:37:01;;;;;;;14.27;12.83;;;11.10;99.90;;;11.90;68.13;94379.25;5019347;28;20275;-73
2021/09/08 04:39:29;;;;;;;15.97;12.70;;;11.20;99.90;;;11.90;68.12;94377.41;5031517;28;20211;-72
2021/09/08 04:41:58;;;;;;;12.30;11.00;;;10.60;99.90;;;11.88;68.55;94376.88;4993380;28;20199;-74
2021/09/08 04:44:24;;;;;;;14.13;11.37;;;11.10;99.90;;;11.81;68.16;94378.97;5030169;28;20218;-73
2021/09/08 04:46:52;;;;;;;14.00;10.80;;;10.90;99.90;;;11.80;68.64;94380.81;5017463;28;20200;-73
2021/09/08 04:49:18;;;;;;;11.23;9.90;;;10.70;99.90;;;11.85;68.57;94376.59;5013984;28;20308;-73
2021/09/08 04:51:44;;;;;;;12.70;11.40;;;10.90;99.90;;;11.77;68.72;94381.34;5030867;28;20274;-73
2021/09/08 04:54:12;;;;;;;12.07;10.87;;;11.10;99.90;;;11.72;68.40;94381.31;5014843;28;20299;-74
2021/09/08 04:56:38;;;;;;;15.20;10.57;;;10.80;99.90;;;11.75;68.88;94382.69;5030235;28;20210;-73
2021/09/08 04:59:04;;;;;;;13.40;11.93;;;10.80;99.90;;;11.77;68.75;94378.69;5016961;28;20562;-74
2021/09/08 05:01:30;;;;;;;16.73;13.77;;;10.90;99.90;;;11.74;68.59;94381.06;4991390;28;20196;-74
2021/09/08 05:03:56;;;;;;;16.93;13.70;;;10.50;99.90;;;11.74;68.66;94381.88;5016326;28;20189;-73
2021/09/08 05:06:24;;;;;;;17.50;13.47;;;10.70;99.90;;;11.80;68.60;94378.16;5017904;28;20192;-74
2021/09/08 05:08:52;;;;;;;18.87;14.93;;;10.80;99.90;;;11.81;68.64;94379.78;5027938;28;20207;-74
2021/09/08 05:11:18;;;;;;;16.97;13.57;;;10.80;99.90;;;11.88;69.15;94384.84;5011676;28;20567;-73
2021/09/08 05:13:46;;;;;;;19.73;14.50;;;10.70;99.90;;;11.95;68.76;94389.91;5038372;28;20197;-73
2021/09/08 05:16:12;;;;;;;23.17;16.33;;;10.90;99.90;;;11.96;68.82;94386.97;5015769;28;20187;-73
2021/09/08 05:18:41;;;;;;;19.43;14.27;;;11.00;99.90;;;12.07;69.35;94399.25;5016114;28;20190;-73
2021/09/08 05:21:07;;;;;;;22.00;13.37;;;11.10;99.90;;;12.04;69.42;94388.34;5020501;28;20223;-72
2021/09/08 05:23:33;;;;;;;22.97;13.13;;;11.10;99.90;;;12.06;68.99;94389.69;5023070;28;20209;-73
2021/09/08 05:25:59;;;;;;;25.50;12.63;;;11.10;99.90;;;12.14;69.12;94394.50;5004358;28;20193;-74
2021/09/08 05:28:25;;;;;;;18.03;12.00;;;11.40;99.90;;;12.25;69.69;94401.44;5033643;28;20186;-73
2021/09/08 05:30:50;;;;;;;23.40;13.27;;;11.20;99.90;;;12.31;69.62;94402.25;5011860;28;20203;-73
2021/09/08 05:33:19;;;;;;;20.30;13.17;;;;;;;12.31;69.69;94389.75;4997739;28;20215;-72
2021/09/08 05:35:44;;;;;;;16.13;12.33;;;11.50;99.90;;;12.42;69.56;94389.78;5037682;28;20290;-76
2021/09/08 05:38:10;;;;;;;18.47;11.20;;;11.50;99.90;;;12.48;69.56;94386.06;5011935;28;20290;-76
2021/09/08 05:40:36;;;;;;;21.20;12.37;;;11.60;99.90;;;12.46;69.91;94391.63;5017192;28;20208;-73
2021/09/08 05:43:02;;;;;;;17.83;11.60;;;;;;;12.61;69.82;94389.00;5045150;28;20206;-73
2021/09/08 05:45:28;;;;;;;20.67;12.17;;;12.00;99.90;;;12.69;69.66;94391.13;5003141;28;20267;-73
2021/09/08 05:47:54;;;;;;;14.40;11.97;;;11.90;99.90;;;12.80;70.13;94390.06;5027342;28;20713;-73
2021/09/08 05:50:24;;;;;;;19.07;12.47;;;12.00;99.90;;;12.93;69.62;94396.72;5013003;28;20194;-73
2021/09/08 05:52:52;;;;;;;15.67;12.53;;;12.20;99.90;;;13.02;70.16;94392.47;5026513;28;20190;-73
2021/09/08 05:55:18;;;;;;;23.83;11.73;;;12.10;99.90;;;13.14;70.20;94389.56;4999588;28;20238;-73
2021/09/08 05:57:46;;;;;;;13.00;11.70;;;12.20;99.90;;;13.23;70.13;94402.03;5019701;28;20274;-73
2021/09/08 06:00:13;;;;;;;14.50;11.37;;;12.60;99.90;;;13.33;69.85;94403.88;5018200;28;20266;-73
2021/09/08 06:02:39;;;;;;;15.03;11.13;;;13.10;99.90;;;13.52;70.09;94399.63;5033649;28;20271;-74
2021/09/08 06:05:08;;;;;;;16.37;11.13;;;12.60;99.90;;;13.65;70.33;94411.56;5026307;28;20282;-73
2021/09/08 06:07:34;;;;;;;15.87;10.87;;;13.20;99.90;;;13.77;70.60;94394.19;5031203;28;20205;-72
2021/09/08 06:10:00;;;;;;;19.33;11.13;;;12.80;99.90;;;13.91;70.55;94406.94;5008483;28;20197;-74
2021/09/08 06:12:26;;;;;;;15.67;10.67;;;12.90;99.90;;;14.25;70.48;94415.88;5033470;28;20192;-73
2021/09/08 06:14:51;;;;;;;14.00;10.40;;;14.00;99.90;;;14.43;70.43;94401.16;5024043;28;20193;-72
2021/09/08 06:17:17;;;;;;;15.83;9.63;;;13.20;99.90;;;14.51;70.46;94388.00;4984985;28;20197;-73
2021/09/08 06:19:43;;;;;;;16.67;9.33;;;13.50;99.90;;;14.67;70.61;94396.72;4998461;28;20225;-72
2021/09/08 06:22:10;;;;;;;14.50;10.87;;;;;;;14.91;70.63;94413.63;5024028;28;20188;-74
2021/09/08 06:24:41;;;;;;;17.53;10.77;;;14.70;99.90;;;15.15;70.42;94414.50;5030553;28;20219;-74
2021/09/08 06:27:09;;;;;;;14.17;9.83;;;14.00;99.90;;;15.49;70.66;94419.03;4996832;28;20193;-73
2021/09/08 06:29:34;;;;;;;11.17;9.00;;;14.30;99.90;;;15.89;70.62;94424.78;5014018;28;20197;-73
2021/09/08 06:32:03;;;;;;;12.57;8.87;;;15.70;99.90;;;16.71;70.62;94437.97;4998503;28;20193;-73
2021/09/08 06:34:28;;;;;;;10.93;8.40;;;15.50;99.90;;;18.56;70.74;94477.22;5026940;28;20183;-73
2021/09/08 06:36:54;;;;;;;9.83;8.23;;;17.10;99.90;;;20.31;70.49;94462.59;4997005;28;20185;-73
2021/09/08 06:39:23;;;;;;;10.67;8.53;;;19.10;99.90;;;22.48;70.39;94461.94;5023460;28;20333;-73
2021/09/08 06:41:51;;;;;;;10.77;7.70;;;21.50;99.90;;;24.81;69.74;94496.00;5018153;28;20246;-73
2021/09/08 06:44:23;;;;;;;11.17;7.47;;;23.70;99.90;;;26.95;69.53;94478.00;5046500;28;20271;-73
2021/09/08 06:46:51;;;;;;;12.17;7.40;;;26.00;99.90;;;27.83;68.76;94455.44;5013718;28;20251;-72
2021/09/08 06:49:20;;;;;;;8.50;7.47;;;27.60;99.90;;;29.60;68.32;94463.09;5017757;28;20533;-73
2021/09/08 06:51:48;;;;;;;8.43;6.90;;;29.30;99.90;;;30.84;67.77;94421.44;5017309;28;20253;-73
2021/09/08 06:54:16;;;;;;;7.43;6.83;;;30.50;99.90;;;31.66;67.17;94459.22;5035959;28;20256;-73
2021/09/08 06:56:45;;;;;;;7.57;6.63;;;31.50;97.90;;;32.20;66.72;94383.41;5046868;28;20271;-74
2021/09/08 06:59:11;;;;;;;7.83;6.53;;;32.50;94.30;;;32.77;66.01;94403.47;5020808;28;20205;-72
2021/09/08 07:01:40;;;;;;;6.65;5.85;;;33.30;91.50;;;32.60;65.40;94288.91;5020530;28;20196;-74
2021/09/08 07:04:05;;;;;;;8.13;6.03;;;33.60;87.50;;;32.70;64.91;94412.50;5022691;28;20200;-72
2021/09/08 07:06:31;;;;;;;7.10;6.40;;;33.90;87.80;;;33.19;63.85;94436.41;5007007;28;20643;-72
2021/09/08 07:09:00;;;;;;;7.03;6.43;;;34.50;85.90;;;33.74;63.27;94422.94;5012049;28;20205;-73
2021/09/08 07:11:29;;;;;;;7.80;6.68;;;35.90;89.10;;;34.46;63.19;94356.09;5015552;28;20195;-73
2021/09/08 07:13:54;;;;;;;10.23;6.50;;;35.70;86.90;;;33.58;61.99;94364.06;5023658;28;20253;-72
2021/09/08 07:16:20;;;;;;;13.65;6.75;;;35.80;82.90;;;34.81;61.37;94425.91;5021219;28;20215;-73
2021/09/08 07:18:49;;;;;;;6.80;6.15;;;36.30;73.90;;;35.08;61.11;94318.56;5017554;28;20192;-73
2021/09/08 07:21:18;;;;;;;10.75;6.38;;;36.80;71.80;;;34.41;60.81;94287.69;5036033;28;20698;-73
2021/09/08 07:23:47;;;;;;;7.97;6.40;;;36.30;70.40;;;35.06;59.37;94373.31;5018148;28;20200;-73
2021/09/08 07:26:13;;;;;;;6.50;5.90;;;36.90;69.90;;;34.94;59.37;94360.84;5007939;28;20287;-73
2021/09/08 07:28:39;;;;;;;7.32;6.28;;;36.90;68.80;;;36.08;58.48;94416.38;5017408;28;20267;-72
2021/09/08 07:31:05;;;;;;;6.78;6.28;;;37.80;67.60;;;36.96;57.37;94390.19;5039199;28;20200;-73
2021/09/08 07:33:36;;;;;;;6.82;6.22;;;37.40;64.90;;;36.91;57.09;94431.34;5026834;28;20636;-71
2021/09/08 07:36:01;;;;;;;7.60;6.07;;;38.80;64.50;;;36.90;56.68;94280.53;5015546;28;20184;-72
2021/09/08 07:38:27;;;;;;;6.90;6.07;;;39.30;63.70;;;37.76;55.53;94386.38;5048243;28;20210;-72
2021/09/08 07:40:55;;;;;;;7.57;6.88;;;39.80;63.40;;;37.61;55.25;94182.31;5013881;28;20222;-74
2021/09/08 07:43:22;;;;;;;7.90;6.82;;;40.20;61.50;;;37.84;53.90;94404.41;5020939;28;20246;-77
2021/09/08 07:45:52;;;;;;;7.85;7.00;;;39.80;61.70;;;37.10;53.74;94306.25;5002291;28;20196;-77
2021/09/08 07:48:20;;;;;;;11.45;7.55;;;39.40;61.20;;;36.01;53.64;94237.00;5025944;28;20571;-77
2021/09/08 07:50:47;;;;;;;7.65;6.88;;;38.60;62.30;;;37.21;53.16;94333.66;5009926;28;20628;-77
2021/09/08 07:53:13;;;;;;;8.88;7.55;;;39.10;62.80;;;36.52;52.50;94279.97;5016617;28;20660;-77
2021/09/08 07:55:42;;;;;;;7.97;7.28;;;38.80;62.00;;;36.82;51.93;94274.34;5043228;28;20253;-76
2021/09/08 07:58:08;;;;;;;7.75;7.05;;;38.90;62.80;;;35.02;51.95;94238.31;4998522;28;20204;-78
2021/09/08 08:00:36;;;;;;;7.25;6.60;;;37.60;63.90;;;36.59;50.87;94453.19;5031992;28;20231;-76
2021/09/08 08:03:03;;;;;;;8.00;7.35;;;38.10;63.70;;;37.60;50.47;94364.19;5029444;28;20201;-76
2021/09/08 08:05:31;;;;;;;8.10;7.30;;;38.70;62.60;;;36.56;50.00;94247.56;5001439;28;20188;-77
2021/09/08 08:07:57;;;;;;;9.25;7.55;;;38.50;63.40;;;34.68;50.25;94209.97;5021273;28;20216;-76
2021/09/08 08:10:23;;;;;;;8.65;7.47;;;37.00;65.10;;;35.64;49.56;94389.69;5034901;28;20201;-76
2021/09/08 08:12:49;;;;;;;8.93;8.05;;;37.70;65.20;;;36.46;48.98;94400.47;5038454;28;20188;-77
2021/09/08 08:15:18;;;;;;;9.27;8.32;;;38.40;63.40;;;35.86;48.43;94348.81;5017984;28;20679;-77
2021/09/08 08:17:44;;;;;;;9.43;8.60;;;38.00;63.60;;;36.49;48.24;94396.84;5002320;28;20232;-77
2021/09/08 08:20:11;;;;;;;8.98;8.18;;;38.40;63.40;;;37.96;47.33;94325.47;5018772;28;20212;-77
2021/09/08 08:22:39;;;;;;;8.80;8.00;;;39.80;62.60;;;37.59;47.41;94343.25;5015339;28;20192;-77
2021/09/08 08:25:08;;;;;;;9.45;8.65;;;39.80;61.90;;;38.49;46.41;94336.13;5019870;28;20220;-75
2021/09/08 08:27:34;;;;;;;10.38;8.43;;;40.90;59.40;;;38.83;46.30;94346.03;5013615;28;20279;-76
2021/09/08 08:30:03;;;;;;;9.77;8.88;;;41.20;59.40;;;38.84;45.82;94298.47;5028549;28;20588;-77
2021/09/08 08:32:28;;;;;;;10.18;9.25;;;41.60;57.30;;;38.74;45.53;94304.25;5014542;28;20271;-77
2021/09/08 08:34:57;;;;;;;9.48;8.20;;;41.50;57.80;;;39.66;44.65;94373.97;5024446;28;20296;-73
2021/09/08 08:37:23;;;;;;;9.68;8.88;;;41.90;57.60;;;39.41;44.43;94391.31;5045032;28;20714;-73
2021/09/08 08:39:51;;;;;;;10.68;9.65;;;41.80;57.20;;;38.43;44.27;94335.09;5019324;28;20216;-73
2021/09/08 08:42:26;;;;;;;9.55;8.75;;;41.00;56.80;;;38.83;43.35;94310.00;5030693;28;20193;-73
2021/09/08 08:44:53;;;;;;;10.10;9.20;;;41.30;57.80;;;38.72;43.59;94162.50;5018975;28;20622;-73
2021/09/08 08:47:20;;;;;;;10.27;9.27;;;41.70;56.50;;;37.88;43.06;94216.06;5016419;28;20255;-73
2021/09/08 08:49:47;;;;;;;9.98;8.77;;;40.80;66.60;;;39.12;42.81;94376.63;4998267;28;20223;-73
2021/09/08 08:52:16;;;;;;;9.73;8.70;;;41.60;63.70;;;39.24;42.01;94326.72;5018761;28;20234;-73
2021/09/08 08:54:42;;;;;;;11.15;8.63;;;41.90;66.30;;;38.86;42.34;94270.28;5027726;28;20196;-73
2021/09/08 08:57:14;;;;;;;9.35;8.60;;;42.10;61.00;;;39.61;41.28;94355.09;5023245;28;20212;-73
2021/09/08 08:59:42;;;;;;;9.95;9.05;;;42.00;56.40;;;40.70;41.09;94273.19;5014077;28;20594;-77
2021/09/08 09:02:30;;;;;;;9.60;8.25;;;43.40;54.80;;;40.57;40.76;94384.44;5030917;28;20184;-76
2021/09/08 09:05:03;;;;;;;10.00;9.00;;;43.00;55.40;;;39.77;40.98;94193.97;5016290;28;20493;-75
2021/09/08 09:07:37;;;;;;;8.60;7.70;;;42.80;54.70;;;40.47;40.10;94288.97;5009678;28;20340;-75
2021/09/08 09:10:12;;;;;;;8.20;7.32;;;43.60;54.70;;;40.63;40.05;94249.16;5033128;28;20678;-75
2021/09/08 09:12:44;;;;;;;9.75;7.60;;;43.90;53.80;;;38.58;39.13;94345.84;4995151;28;20282;-75
2021/09/08 09:15:15;;;;;;;9.63;7.25;;;42.00;55.30;;;38.80;39.27;94371.84;5001409;28;20235;-76
2021/09/08 09:17:42;;;;;;;8.32;7.53;;;41.60;55.30;;;40.19;39.22;94253.00;5014563;28;20543;-75
2021/09/08 09:20:12;;;;;;;7.18;6.57;;;42.80;55.20;;;41.14;38.58;94347.19;5010705;28;20212;-76
2021/09/08 09:22:50;;;;;;;7.45;6.85;;;43.90;54.30;;;41.69;38.23;94317.81;5014215;28;20199;-76
2021/09/08 09:25:26;;;;;;;9.93;7.35;;;44.60;51.80;;;42.05;37.68;94320.06;5008072;28;20282;-76
2021/09/08 09:27:57;;;;;;;8.65;7.95;;;45.10;51.90;;;43.05;37.53;94339.22;5030034;28;20192;-75
2021/09/08 09:30:27;;;;;;;8.95;8.15;;;46.10;51.70;;;42.39;37.21;94239.06;5010810;28;20219;-76
2021/09/08 09:32:58;;;;;;;9.18;8.40;;;45.70;51.00;;;42.50;36.82;94246.22;5016385;28;20225;-76
2021/09/08 09:35:31;;;;;;;11.13;8.57;;;45.90;51.10;;;41.62;36.49;94339.56;4998837;28;20189;-76
2021/09/08 09:38:04;;;;;;;9.90;9.00;;;45.10;51.90;;;40.52;36.30;94232.06;5014424;28;20200;-75
2021/09/08 09:40:36;;;;;;;9.45;8.60;;;44.10;52.70;;;41.34;35.97;94285.66;5029024;28;20754;-76
2021/09/08 09:43:10;;;;;;;8.63;7.78;;;44.50;52.00;;;41.06;35.82;94278.34;5014758;28;20227;-76
2021/09/08 09:45:39;;;;;;;9.73;8.73;;;44.50;52.60;;;40.77;35.82;94172.81;5025241;28;20199;-75
2021/09/08 09:48:07;;;;;;;9.10;8.35;;;43.90;52.90;;;40.64;35.57;94230.47;5014515;28;20261;-76
2021/09/08 09:50:34;;;;;;;9.63;8.73;;;43.50;53.70;;;41.07;35.14;94291.03;5001004;28;20199;-75
2021/09/08 09:53:02;;;;;;;9.70;8.85;;;44.00;53.20;;;41.12;35.00;94251.47;4986978;28;20263;-75
2021/09/08 09:55:28;;;;;;;8.80;7.93;;;44.20;53.50;;;40.41;34.82;94215.72;5013324;28;20191;-75
2021/09/08 09:57:55;;;;;;;8.00;7.30;;;44.00;53.60;;;40.15;34.75;94227.31;4990029;28;20184;-76
2021/09/08 10:00:22;;;;;;;10.70;6.97;;;43.50;52.00;;;40.12;34.22;94254.00;5020328;28;20564;-76
2021/09/08 10:02:49;;;;;;;9.02;8.20;;;43.60;52.50;;;41.07;34.14;94293.81;5010152;28;20271;-75
2021/09/08 10:05:17;;;;;;;9.30;7.43;;;44.40;52.00;;;41.10;33.77;94160.09;5020044;28;20566;-76
2021/09/08 10:07:44;;;;;;;7.43;6.70;;;44.40;52.60;;;40.97;33.69;94284.56;5011190;28;20194;-75
2021/09/08 10:10:29;;;;;;;8.10;6.07;;;44.20;52.80;;;42.75;32.96;94421.72;5006101;28;20201;-75
2021/09/08 10:13:17;;;;;;;6.85;6.25;;;45.40;51.20;;;42.34;33.12;94393.00;5001192;28;20201;-74
2021/09/08 10:15:43;;;;;;;6.65;6.03;;;45.10;51.20;;;44.21;32.96;94322.13;5016435;28;20630;-74
2021/09/08 10:18:12;;;;;;;8.10;7.40;;;47.20;50.50;;;44.30;32.17;94243.78;5016143;28;20196;-75